sensor_id;sensor_type;location;lat;lon;timestamp;P1;durP1;ratioP1;P2;durP2;ratioP2
80994;SDS011;70458;49.200;-122.910;2023-06-26T00:00:25;4.47;;;0.70;;
80994;SDS011;70458;49.200;-122.910;2023-06-26T00:02:51;2.47;;;0.60;;
80994;SDS011;70458;49.200;-122.910;2023-06-26T00:05:17;3.83;;;1.10;;
80994;SDS011;70458;49.200;-122.910;2023-06-26T00:07:43;3.53;;;0.73;;
80994;SDS011;70458;49.200;-122.910;2023-06-26T00:10:09;3.53;;;0.82;;
80994;SDS011;70458;49.200;-122.910;2023-06-26T00:12:36;2.85;;;0.80;;
80994;SDS011;70458;49.200;-122.910;2023-06-26T00:15:02;3.42;;;0.80;;
80994;SDS011;70458;49.200;-122.910;2023-06-26T00:17:28;2.90;;;0.88;;
80994;SDS011;70458;49.200;-122.910;2023-06-26T00:19:55;2.78;;;0.95;;
80994;SDS011;70458;49.200;-122.910;2023-06-26T00:22:21;4.30;;;0.90;;
80994;SDS011;70458;49.200;-122.910;2023-06-26T00:24:47;3.22;;;0.80;;
80994;SDS011;70458;49.200;-122.910;2023-06-26T00:27:14;4.65;;;1.17;;
80994;SDS011;70458;49.200;-122.910;2023-06-26T00:29:40;3.72;;;0.73;;
80994;SDS011;70458;49.200;-122.910;2023-06-26T00:32:06;4.03;;;0.80;;
80994;SDS011;70458;49.200;-122.910;2023-06-26T00:34:32;2.88;;;0.82;;
80994;SDS011;70458;49.200;-122.910;2023-06-26T00:36:59;4.00;;;0.98;;
80994;SDS011;70458;49.200;-122.910;2023-06-26T00:39:25;4.00;;;0.90;;
80994;SDS011;70458;49.200;-122.910;2023-06-26T00:41:52;4.57;;;1.33;;
80994;SDS011;70458;49.200;-122.910;2023-06-26T00:44:19;4.05;;;1.08;;
80994;SDS011;70458;49.200;-122.910;2023-06-26T00:46:46;3.15;;;1.05;;
80994;SDS011;70458;49.200;-122.910;2023-06-26T00:49:12;5.40;;;1.00;;
80994;SDS011;70458;49.200;-122.910;2023-06-26T00:51:38;3.58;;;0.80;;
80994;SDS011;70458;49.200;-122.910;2023-06-26T00:54:04;3.40;;;1.00;;
80994;SDS011;70458;49.200;-122.910;2023-06-26T00:56:31;3.97;;;1.20;;
80994;SDS011;70458;49.200;-122.910;2023-06-26T00:58:57;4.55;;;0.90;;
80994;SDS011;70458;49.200;-122.910;2023-06-26T01:01:24;4.72;;;1.38;;
80994;SDS011;70458;49.200;-122.910;2023-06-26T01:03:51;4.05;;;1.13;;
80994;SDS011;70458;49.200;-122.910;2023-06-26T01:06:20;4.50;;;0.80;;
80994;SDS011;70458;49.200;-122.910;2023-06-26T01:08:47;5.28;;;1.13;;
80994;SDS011;70458;49.200;-122.910;2023-06-26T01:11:13;2.92;;;0.88;;
80994;SDS011;70458;49.200;-122.910;2023-06-26T01:13:41;3.58;;;1.10;;
80994;SDS011;70458;49.200;-122.910;2023-06-26T01:16:11;3.00;;;0.90;;
80994;SDS011;70458;49.200;-122.910;2023-06-26T01:18:37;4.25;;;1.13;;
80994;SDS011;70458;49.200;-122.910;2023-06-26T01:21:09;4.53;;;1.05;;
80994;SDS011;70458;49.200;-122.910;2023-06-26T01:26:35;4.00;;;1.08;;
80994;SDS011;70458;49.200;-122.910;2023-06-26T01:29:03;3.92;;;1.02;;
80994;SDS011;70458;49.200;-122.910;2023-06-26T01:31:30;4.40;;;1.15;;
80994;SDS011;70458;49.200;-122.910;2023-06-26T01:33:59;6.18;;;1.60;;
80994;SDS011;70458;49.200;-122.910;2023-06-26T01:36:26;5.03;;;1.50;;
80994;SDS011;70458;49.200;-122.910;2023-06-26T01:38:53;5.30;;;1.60;;
80994;SDS011;70458;49.200;-122.910;2023-06-26T01:41:19;5.00;;;1.25;;
80994;SDS011;70458;49.200;-122.910;2023-06-26T01:46:34;3.95;;;0.90;;
80994;SDS011;70458;49.200;-122.910;2023-06-26T01:54:26;4.75;;;1.30;;
80994;SDS011;70458;49.200;-122.910;2023-06-26T01:56:55;5.80;;;1.27;;
80994;SDS011;70458;49.200;-122.910;2023-06-26T01:59:23;4.30;;;1.30;;
80994;SDS011;70458;49.200;-122.910;2023-06-26T02:01:50;3.03;;;0.80;;
80994;SDS011;70458;49.200;-122.910;2023-06-26T02:04:18;3.90;;;1.20;;
80994;SDS011;70458;49.200;-122.910;2023-06-26T02:06:44;5.43;;;1.13;;
80994;SDS011;70458;49.200;-122.910;2023-06-26T02:09:10;5.20;;;1.40;;
80994;SDS011;70458;49.200;-122.910;2023-06-26T02:11:36;5.07;;;1.20;;
80994;SDS011;70458;49.200;-122.910;2023-06-26T02:14:02;4.93;;;1.05;;
80994;SDS011;70458;49.200;-122.910;2023-06-26T02:16:29;3.58;;;1.00;;
80994;SDS011;70458;49.200;-122.910;2023-06-26T02:18:55;4.03;;;1.17;;
80994;SDS011;70458;49.200;-122.910;2023-06-26T02:21:23;3.97;;;1.30;;
80994;SDS011;70458;49.200;-122.910;2023-06-26T02:23:49;5.10;;;1.33;;
80994;SDS011;70458;49.200;-122.910;2023-06-26T02:26:15;4.43;;;1.20;;
80994;SDS011;70458;49.200;-122.910;2023-06-26T02:28:41;3.25;;;0.95;;
80994;SDS011;70458;49.200;-122.910;2023-06-26T02:31:07;4.75;;;1.25;;
80994;SDS011;70458;49.200;-122.910;2023-06-26T02:33:34;3.58;;;0.95;;
80994;SDS011;70458;49.200;-122.910;2023-06-26T02:36:00;4.35;;;1.15;;
80994;SDS011;70458;49.200;-122.910;2023-06-26T02:38:26;4.78;;;1.10;;
80994;SDS011;70458;49.200;-122.910;2023-06-26T02:40:52;7.30;;;1.27;;
80994;SDS011;70458;49.200;-122.910;2023-06-26T02:43:18;3.00;;;1.10;;
80994;SDS011;70458;49.200;-122.910;2023-06-26T02:45:45;4.70;;;1.60;;
80994;SDS011;70458;49.200;-122.910;2023-06-26T02:48:11;4.55;;;1.25;;
80994;SDS011;70458;49.200;-122.910;2023-06-26T02:50:37;5.05;;;1.55;;
80994;SDS011;70458;49.200;-122.910;2023-06-26T02:53:03;5.40;;;1.38;;
80994;SDS011;70458;49.200;-122.910;2023-06-26T02:55:29;4.93;;;1.63;;
80994;SDS011;70458;49.200;-122.910;2023-06-26T02:57:56;4.22;;;1.52;;
80994;SDS011;70458;49.200;-122.910;2023-06-26T03:00:22;4.32;;;1.48;;
80994;SDS011;70458;49.200;-122.910;2023-06-26T03:02:48;4.10;;;1.60;;
80994;SDS011;70458;49.200;-122.910;2023-06-26T03:05:14;5.25;;;1.63;;
80994;SDS011;70458;49.200;-122.910;2023-06-26T03:07:40;5.05;;;1.27;;
80994;SDS011;70458;49.200;-122.910;2023-06-26T03:10:07;5.32;;;1.60;;
80994;SDS011;70458;49.200;-122.910;2023-06-26T03:12:33;3.53;;;1.30;;
80994;SDS011;70458;49.200;-122.910;2023-06-26T03:14:59;4.45;;;1.63;;
80994;SDS011;70458;49.200;-122.910;2023-06-26T03:17:25;3.35;;;1.23;;
80994;SDS011;70458;49.200;-122.910;2023-06-26T03:19:52;4.47;;;1.27;;
80994;SDS011;70458;49.200;-122.910;2023-06-26T03:22:18;5.55;;;1.42;;
80994;SDS011;70458;49.200;-122.910;2023-06-26T03:24:44;7.25;;;1.80;;
80994;SDS011;70458;49.200;-122.910;2023-06-26T03:27:11;4.22;;;1.45;;
80994;SDS011;70458;49.200;-122.910;2023-06-26T03:29:37;4.40;;;1.75;;
80994;SDS011;70458;49.200;-122.910;2023-06-26T03:32:03;6.43;;;2.10;;
80994;SDS011;70458;49.200;-122.910;2023-06-26T03:34:29;6.30;;;1.63;;
80994;SDS011;70458;49.200;-122.910;2023-06-26T03:36:56;9.00;;;1.95;;
80994;SDS011;70458;49.200;-122.910;2023-06-26T03:39:22;5.80;;;2.08;;
80994;SDS011;70458;49.200;-122.910;2023-06-26T03:41:48;3.92;;;1.70;;
80994;SDS011;70458;49.200;-122.910;2023-06-26T03:44:14;6.43;;;2.15;;
80994;SDS011;70458;49.200;-122.910;2023-06-26T03:46:41;5.15;;;2.15;;
80994;SDS011;70458;49.200;-122.910;2023-06-26T03:49:08;6.90;;;2.70;;
80994;SDS011;70458;49.200;-122.910;2023-06-26T03:51:36;7.28;;;2.22;;
80994;SDS011;70458;49.200;-122.910;2023-06-26T03:54:02;7.05;;;2.25;;
80994;SDS011;70458;49.200;-122.910;2023-06-26T03:56:30;5.13;;;1.77;;
80994;SDS011;70458;49.200;-122.910;2023-06-26T03:58:56;6.78;;;2.00;;
80994;SDS011;70458;49.200;-122.910;2023-06-26T04:01:23;5.72;;;2.05;;
80994;SDS011;70458;49.200;-122.910;2023-06-26T04:03:49;5.72;;;1.55;;
80994;SDS011;70458;49.200;-122.910;2023-06-26T04:06:15;6.30;;;2.17;;
80994;SDS011;70458;49.200;-122.910;2023-06-26T04:08:41;4.32;;;1.42;;
80994;SDS011;70458;49.200;-122.910;2023-06-26T04:11:08;6.18;;;1.90;;
80994;SDS011;70458;49.200;-122.910;2023-06-26T04:13:34;4.82;;;1.90;;
80994;SDS011;70458;49.200;-122.910;2023-06-26T04:16:00;4.07;;;1.83;;
80994;SDS011;70458;49.200;-122.910;2023-06-26T04:18:26;4.15;;;1.42;;
80994;SDS011;70458;49.200;-122.910;2023-06-26T04:21:09;4.72;;;1.67;;
80994;SDS011;70458;49.200;-122.910;2023-06-26T04:23:39;5.35;;;1.73;;
80994;SDS011;70458;49.200;-122.910;2023-06-26T04:26:05;6.50;;;2.33;;
80994;SDS011;70458;49.200;-122.910;2023-06-26T04:28:32;5.35;;;1.70;;
80994;SDS011;70458;49.200;-122.910;2023-06-26T04:30:59;3.95;;;1.40;;
80994;SDS011;70458;49.200;-122.910;2023-06-26T04:33:26;4.40;;;1.70;;
80994;SDS011;70458;49.200;-122.910;2023-06-26T04:35:53;6.18;;;1.60;;
80994;SDS011;70458;49.200;-122.910;2023-06-26T04:38:19;5.47;;;1.70;;
80994;SDS011;70458;49.200;-122.910;2023-06-26T04:40:47;5.50;;;2.20;;
80994;SDS011;70458;49.200;-122.910;2023-06-26T04:43:13;4.90;;;1.70;;
80994;SDS011;70458;49.200;-122.910;2023-06-26T04:45:40;7.47;;;2.00;;
80994;SDS011;70458;49.200;-122.910;2023-06-26T04:48:06;6.03;;;2.33;;
80994;SDS011;70458;49.200;-122.910;2023-06-26T04:50:32;5.70;;;1.98;;
80994;SDS011;70458;49.200;-122.910;2023-06-26T04:52:58;4.82;;;1.95;;
80994;SDS011;70458;49.200;-122.910;2023-06-26T04:55:25;4.68;;;2.28;;
80994;SDS011;70458;49.200;-122.910;2023-06-26T04:57:51;5.15;;;1.95;;
80994;SDS011;70458;49.200;-122.910;2023-06-26T05:00:18;4.35;;;1.70;;
80994;SDS011;70458;49.200;-122.910;2023-06-26T05:02:44;4.55;;;1.40;;
80994;SDS011;70458;49.200;-122.910;2023-06-26T05:05:10;6.07;;;1.70;;
80994;SDS011;70458;49.200;-122.910;2023-06-26T05:07:37;4.65;;;1.67;;
80994;SDS011;70458;49.200;-122.910;2023-06-26T05:10:04;5.20;;;1.60;;
80994;SDS011;70458;49.200;-122.910;2023-06-26T05:12:30;4.50;;;1.52;;
80994;SDS011;70458;49.200;-122.910;2023-06-26T05:14:56;5.10;;;1.75;;
80994;SDS011;70458;49.200;-122.910;2023-06-26T05:17:22;5.28;;;1.63;;
80994;SDS011;70458;49.200;-122.910;2023-06-26T05:19:49;4.93;;;1.77;;
80994;SDS011;70458;49.200;-122.910;2023-06-26T05:22:15;4.47;;;1.70;;
80994;SDS011;70458;49.200;-122.910;2023-06-26T05:24:42;6.15;;;1.67;;
80994;SDS011;70458;49.200;-122.910;2023-06-26T05:27:11;4.05;;;1.70;;
80994;SDS011;70458;49.200;-122.910;2023-06-26T05:29:44;5.78;;;1.75;;
80994;SDS011;70458;49.200;-122.910;2023-06-26T05:32:11;6.97;;;2.00;;
80994;SDS011;70458;49.200;-122.910;2023-06-26T05:34:43;7.35;;;2.70;;
80994;SDS011;70458;49.200;-122.910;2023-06-26T05:37:18;6.07;;;2.33;;
80994;SDS011;70458;49.200;-122.910;2023-06-26T05:39:46;4.60;;;1.77;;
80994;SDS011;70458;49.200;-122.910;2023-06-26T05:42:13;5.40;;;1.50;;
80994;SDS011;70458;49.200;-122.910;2023-06-26T05:44:40;6.53;;;1.95;;
80994;SDS011;70458;49.200;-122.910;2023-06-26T05:47:06;5.00;;;1.85;;
80994;SDS011;70458;49.200;-122.910;2023-06-26T05:49:33;6.55;;;1.92;;
80994;SDS011;70458;49.200;-122.910;2023-06-26T05:51:59;5.75;;;1.77;;
80994;SDS011;70458;49.200;-122.910;2023-06-26T05:54:25;4.75;;;1.50;;
80994;SDS011;70458;49.200;-122.910;2023-06-26T05:56:56;4.72;;;1.80;;
80994;SDS011;70458;49.200;-122.910;2023-06-26T05:59:24;5.10;;;1.30;;
80994;SDS011;70458;49.200;-122.910;2023-06-26T06:01:52;4.70;;;1.60;;
80994;SDS011;70458;49.200;-122.910;2023-06-26T06:04:18;5.35;;;1.55;;
80994;SDS011;70458;49.200;-122.910;2023-06-26T06:06:44;6.25;;;2.85;;
80994;SDS011;70458;49.200;-122.910;2023-06-26T06:09:11;6.28;;;2.13;;
80994;SDS011;70458;49.200;-122.910;2023-06-26T06:11:37;5.93;;;1.67;;
80994;SDS011;70458;49.200;-122.910;2023-06-26T06:14:03;5.25;;;1.85;;
80994;SDS011;70458;49.200;-122.910;2023-06-26T06:16:29;8.55;;;2.65;;
80994;SDS011;70458;49.200;-122.910;2023-06-26T06:18:56;6.53;;;2.40;;
80994;SDS011;70458;49.200;-122.910;2023-06-26T06:21:22;6.13;;;2.03;;
80994;SDS011;70458;49.200;-122.910;2023-06-26T06:23:48;5.30;;;1.98;;
80994;SDS011;70458;49.200;-122.910;2023-06-26T06:26:14;5.97;;;2.00;;
80994;SDS011;70458;49.200;-122.910;2023-06-26T06:28:40;5.20;;;1.90;;
80994;SDS011;70458;49.200;-122.910;2023-06-26T06:31:07;6.95;;;1.90;;
80994;SDS011;70458;49.200;-122.910;2023-06-26T06:33:33;4.57;;;1.60;;
80994;SDS011;70458;49.200;-122.910;2023-06-26T06:35:59;4.47;;;1.60;;
80994;SDS011;70458;49.200;-122.910;2023-06-26T06:38:26;4.60;;;1.38;;
80994;SDS011;70458;49.200;-122.910;2023-06-26T06:40:52;5.93;;;2.00;;
80994;SDS011;70458;49.200;-122.910;2023-06-26T06:43:18;5.20;;;1.80;;
80994;SDS011;70458;49.200;-122.910;2023-06-26T06:45:44;5.10;;;1.50;;
80994;SDS011;70458;49.200;-122.910;2023-06-26T06:48:11;6.25;;;1.85;;
80994;SDS011;70458;49.200;-122.910;2023-06-26T06:50:37;6.68;;;2.05;;
80994;SDS011;70458;49.200;-122.910;2023-06-26T06:53:03;5.68;;;1.70;;
80994;SDS011;70458;49.200;-122.910;2023-06-26T06:55:29;5.82;;;1.70;;
80994;SDS011;70458;49.200;-122.910;2023-06-26T06:57:55;5.72;;;1.30;;
80994;SDS011;70458;49.200;-122.910;2023-06-26T07:00:22;4.72;;;1.42;;
80994;SDS011;70458;49.200;-122.910;2023-06-26T07:02:48;5.95;;;1.25;;
80994;SDS011;70458;49.200;-122.910;2023-06-26T07:05:14;4.47;;;1.38;;
80994;SDS011;70458;49.200;-122.910;2023-06-26T07:07:41;7.03;;;2.13;;
80994;SDS011;70458;49.200;-122.910;2023-06-26T07:10:08;6.15;;;1.95;;
80994;SDS011;70458;49.200;-122.910;2023-06-26T07:12:37;6.18;;;1.65;;
80994;SDS011;70458;49.200;-122.910;2023-06-26T07:15:04;4.68;;;1.30;;
80994;SDS011;70458;49.200;-122.910;2023-06-26T07:17:31;5.10;;;2.08;;
80994;SDS011;70458;49.200;-122.910;2023-06-26T07:19:59;5.63;;;1.90;;
80994;SDS011;70458;49.200;-122.910;2023-06-26T07:22:26;4.80;;;1.50;;
80994;SDS011;70458;49.200;-122.910;2023-06-26T07:24:52;5.15;;;1.50;;
80994;SDS011;70458;49.200;-122.910;2023-06-26T07:27:19;4.75;;;1.63;;
80994;SDS011;70458;49.200;-122.910;2023-06-26T07:29:46;5.15;;;1.55;;
80994;SDS011;70458;49.200;-122.910;2023-06-26T07:32:12;4.85;;;1.70;;
80994;SDS011;70458;49.200;-122.910;2023-06-26T07:34:38;6.38;;;1.63;;
80994;SDS011;70458;49.200;-122.910;2023-06-26T07:37:05;5.82;;;1.80;;
80994;SDS011;70458;49.200;-122.910;2023-06-26T07:39:31;5.35;;;2.10;;
80994;SDS011;70458;49.200;-122.910;2023-06-26T07:41:57;6.65;;;1.67;;
80994;SDS011;70458;49.200;-122.910;2023-06-26T07:44:26;7.57;;;1.90;;
80994;SDS011;70458;49.200;-122.910;2023-06-26T07:46:52;5.53;;;1.58;;
80994;SDS011;70458;49.200;-122.910;2023-06-26T07:49:18;4.13;;;1.40;;
80994;SDS011;70458;49.200;-122.910;2023-06-26T07:51:45;7.95;;;1.98;;
80994;SDS011;70458;49.200;-122.910;2023-06-26T07:54:11;5.72;;;1.50;;
80994;SDS011;70458;49.200;-122.910;2023-06-26T07:56:56;4.28;;;1.67;;
80994;SDS011;70458;49.200;-122.910;2023-06-26T07:59:24;4.75;;;1.60;;
80994;SDS011;70458;49.200;-122.910;2023-06-26T08:01:51;4.95;;;1.23;;
80994;SDS011;70458;49.200;-122.910;2023-06-26T08:04:22;4.55;;;1.33;;
80994;SDS011;70458;49.200;-122.910;2023-06-26T08:06:50;4.55;;;1.58;;
80994;SDS011;70458;49.200;-122.910;2023-06-26T08:09:18;5.57;;;1.30;;
80994;SDS011;70458;49.200;-122.910;2023-06-26T08:11:45;4.78;;;1.77;;
80994;SDS011;70458;49.200;-122.910;2023-06-26T08:14:12;6.90;;;1.40;;
80994;SDS011;70458;49.200;-122.910;2023-06-26T08:16:39;5.18;;;1.90;;
80994;SDS011;70458;49.200;-122.910;2023-06-26T08:19:06;5.93;;;1.38;;
80994;SDS011;70458;49.200;-122.910;2023-06-26T08:21:32;6.80;;;1.98;;
80994;SDS011;70458;49.200;-122.910;2023-06-26T08:23:59;4.68;;;1.55;;
80994;SDS011;70458;49.200;-122.910;2023-06-26T08:26:25;4.30;;;1.48;;
80994;SDS011;70458;49.200;-122.910;2023-06-26T08:28:51;5.05;;;2.05;;
80994;SDS011;70458;49.200;-122.910;2023-06-26T08:31:17;5.22;;;1.63;;
80994;SDS011;70458;49.200;-122.910;2023-06-26T08:33:44;4.78;;;1.15;;
80994;SDS011;70458;49.200;-122.910;2023-06-26T08:36:10;5.60;;;1.65;;
80994;SDS011;70458;49.200;-122.910;2023-06-26T08:38:36;5.63;;;1.45;;
80994;SDS011;70458;49.200;-122.910;2023-06-26T08:41:05;5.35;;;1.60;;
80994;SDS011;70458;49.200;-122.910;2023-06-26T08:43:32;7.60;;;1.48;;
80994;SDS011;70458;49.200;-122.910;2023-06-26T08:45:59;7.07;;;2.53;;
80994;SDS011;70458;49.200;-122.910;2023-06-26T08:48:25;5.82;;;1.30;;
80994;SDS011;70458;49.200;-122.910;2023-06-26T08:50:52;6.13;;;1.50;;
80994;SDS011;70458;49.200;-122.910;2023-06-26T08:55:53;6.75;;;1.70;;
80994;SDS011;70458;49.200;-122.910;2023-06-26T08:58:20;7.93;;;1.98;;
80994;SDS011;70458;49.200;-122.910;2023-06-26T09:00:46;6.55;;;2.08;;
80994;SDS011;70458;49.200;-122.910;2023-06-26T09:03:14;5.80;;;1.58;;
80994;SDS011;70458;49.200;-122.910;2023-06-26T09:05:41;6.43;;;2.05;;
80994;SDS011;70458;49.200;-122.910;2023-06-26T09:08:07;9.07;;;2.10;;
80994;SDS011;70458;49.200;-122.910;2023-06-26T09:10:33;6.70;;;1.95;;
80994;SDS011;70458;49.200;-122.910;2023-06-26T09:13:00;8.02;;;2.45;;
80994;SDS011;70458;49.200;-122.910;2023-06-26T09:15:38;6.90;;;1.80;;
80994;SDS011;70458;49.200;-122.910;2023-06-26T09:18:08;5.75;;;1.77;;
80994;SDS011;70458;49.200;-122.910;2023-06-26T09:20:34;8.27;;;1.92;;
80994;SDS011;70458;49.200;-122.910;2023-06-26T09:23:01;11.07;;;3.92;;
80994;SDS011;70458;49.200;-122.910;2023-06-26T09:25:28;7.68;;;3.35;;
80994;SDS011;70458;49.200;-122.910;2023-06-26T09:27:55;15.93;;;5.18;;
80994;SDS011;70458;49.200;-122.910;2023-06-26T09:30:21;15.00;;;4.60;;
80994;SDS011;70458;49.200;-122.910;2023-06-26T09:32:48;8.50;;;3.22;;
80994;SDS011;70458;49.200;-122.910;2023-06-26T09:35:16;8.90;;;2.70;;
80994;SDS011;70458;49.200;-122.910;2023-06-26T09:37:43;9.80;;;3.10;;
80994;SDS011;70458;49.200;-122.910;2023-06-26T09:40:09;9.73;;;3.00;;
80994;SDS011;70458;49.200;-122.910;2023-06-26T09:42:35;8.02;;;2.60;;
80994;SDS011;70458;49.200;-122.910;2023-06-26T09:45:02;11.38;;;4.03;;
80994;SDS011;70458;49.200;-122.910;2023-06-26T09:47:32;10.60;;;3.08;;
80994;SDS011;70458;49.200;-122.910;2023-06-26T09:50:02;9.48;;;3.65;;
80994;SDS011;70458;49.200;-122.910;2023-06-26T09:52:30;11.25;;;3.20;;
80994;SDS011;70458;49.200;-122.910;2023-06-26T09:55:09;8.63;;;2.83;;
80994;SDS011;70458;49.200;-122.910;2023-06-26T09:57:37;8.60;;;2.97;;
80994;SDS011;70458;49.200;-122.910;2023-06-26T10:00:04;8.75;;;2.58;;
80994;SDS011;70458;49.200;-122.910;2023-06-26T10:02:33;8.95;;;2.45;;
80994;SDS011;70458;49.200;-122.910;2023-06-26T10:04:59;9.73;;;2.85;;
80994;SDS011;70458;49.200;-122.910;2023-06-26T10:07:26;13.90;;;3.30;;
80994;SDS011;70458;49.200;-122.910;2023-06-26T10:09:52;9.77;;;3.22;;
80994;SDS011;70458;49.200;-122.910;2023-06-26T10:12:29;11.20;;;3.42;;
80994;SDS011;70458;49.200;-122.910;2023-06-26T10:14:56;10.27;;;3.33;;
80994;SDS011;70458;49.200;-122.910;2023-06-26T10:17:24;7.13;;;2.75;;
80994;SDS011;70458;49.200;-122.910;2023-06-26T10:19:52;8.85;;;3.15;;
80994;SDS011;70458;49.200;-122.910;2023-06-26T10:22:21;9.90;;;2.88;;
80994;SDS011;70458;49.200;-122.910;2023-06-26T10:24:50;9.02;;;2.25;;
80994;SDS011;70458;49.200;-122.910;2023-06-26T10:27:17;7.22;;;3.30;;
80994;SDS011;70458;49.200;-122.910;2023-06-26T10:29:47;13.77;;;4.97;;
80994;SDS011;70458;49.200;-122.910;2023-06-26T10:32:19;11.40;;;4.60;;
80994;SDS011;70458;49.200;-122.910;2023-06-26T10:34:46;9.13;;;3.10;;
80994;SDS011;70458;49.200;-122.910;2023-06-26T10:37:12;8.48;;;3.05;;
80994;SDS011;70458;49.200;-122.910;2023-06-26T10:39:53;9.30;;;3.10;;
80994;SDS011;70458;49.200;-122.910;2023-06-26T10:42:20;9.90;;;2.85;;
80994;SDS011;70458;49.200;-122.910;2023-06-26T10:45:36;8.20;;;2.25;;
80994;SDS011;70458;49.200;-122.910;2023-06-26T10:47:55;9.68;;;2.92;;
80994;SDS011;70458;49.200;-122.910;2023-06-26T10:50:30;7.57;;;2.80;;
80994;SDS011;70458;49.200;-122.910;2023-06-26T10:56:02;7.70;;;2.42;;
80994;SDS011;70458;49.200;-122.910;2023-06-26T11:03:44;9.27;;;3.58;;
80994;SDS011;70458;49.200;-122.910;2023-06-26T11:06:11;9.77;;;3.50;;
80994;SDS011;70458;49.200;-122.910;2023-06-26T11:08:51;7.47;;;3.00;;
80994;SDS011;70458;49.200;-122.910;2023-06-26T11:16:49;13.68;;;3.72;;
80994;SDS011;70458;49.200;-122.910;2023-06-26T11:19:18;11.55;;;4.40;;
80994;SDS011;70458;49.200;-122.910;2023-06-26T11:21:45;11.70;;;3.78;;
80994;SDS011;70458;49.200;-122.910;2023-06-26T11:24:12;10.80;;;4.00;;
80994;SDS011;70458;49.200;-122.910;2023-06-26T11:26:39;8.80;;;2.90;;
80994;SDS011;70458;49.200;-122.910;2023-06-26T11:29:09;7.70;;;2.70;;
80994;SDS011;70458;49.200;-122.910;2023-06-26T11:31:36;8.02;;;2.08;;
80994;SDS011;70458;49.200;-122.910;2023-06-26T11:34:05;7.80;;;2.83;;
80994;SDS011;70458;49.200;-122.910;2023-06-26T11:36:38;10.82;;;2.83;;
80994;SDS011;70458;49.200;-122.910;2023-06-26T11:39:07;10.25;;;3.95;;
80994;SDS011;70458;49.200;-122.910;2023-06-26T11:41:37;9.68;;;3.22;;
80994;SDS011;70458;49.200;-122.910;2023-06-26T11:44:04;7.57;;;2.33;;
80994;SDS011;70458;49.200;-122.910;2023-06-26T11:46:34;8.73;;;1.83;;
80994;SDS011;70458;49.200;-122.910;2023-06-26T11:49:03;8.10;;;1.92;;
80994;SDS011;70458;49.200;-122.910;2023-06-26T11:51:32;10.82;;;3.17;;
80994;SDS011;70458;49.200;-122.910;2023-06-26T11:54:02;12.13;;;3.67;;
80994;SDS011;70458;49.200;-122.910;2023-06-26T11:56:29;7.53;;;2.65;;
80994;SDS011;70458;49.200;-122.910;2023-06-26T11:58:56;9.13;;;2.75;;
80994;SDS011;70458;49.200;-122.910;2023-06-26T12:01:24;7.70;;;2.50;;
80994;SDS011;70458;49.200;-122.910;2023-06-26T12:03:50;10.30;;;3.13;;
80994;SDS011;70458;49.200;-122.910;2023-06-26T12:06:17;9.38;;;2.53;;
80994;SDS011;70458;49.200;-122.910;2023-06-26T12:08:43;8.13;;;2.92;;
80994;SDS011;70458;49.200;-122.910;2023-06-26T12:11:09;8.63;;;2.53;;
80994;SDS011;70458;49.200;-122.910;2023-06-26T12:13:36;7.40;;;2.25;;
80994;SDS011;70458;49.200;-122.910;2023-06-26T12:16:02;10.40;;;2.90;;
80994;SDS011;70458;49.200;-122.910;2023-06-26T12:18:35;7.82;;;2.25;;
80994;SDS011;70458;49.200;-122.910;2023-06-26T12:21:01;9.82;;;2.72;;
80994;SDS011;70458;49.200;-122.910;2023-06-26T12:23:35;12.32;;;3.30;;
80994;SDS011;70458;49.200;-122.910;2023-06-26T12:26:20;8.18;;;2.35;;
80994;SDS011;70458;49.200;-122.910;2023-06-26T12:28:47;10.20;;;2.65;;
80994;SDS011;70458;49.200;-122.910;2023-06-26T12:31:14;11.82;;;2.67;;
80994;SDS011;70458;49.200;-122.910;2023-06-26T12:33:42;8.40;;;2.20;;
80994;SDS011;70458;49.200;-122.910;2023-06-26T12:36:12;9.18;;;2.28;;
80994;SDS011;70458;49.200;-122.910;2023-06-26T12:38:39;13.07;;;3.63;;
80994;SDS011;70458;49.200;-122.910;2023-06-26T12:41:13;19.10;;;4.20;;
80994;SDS011;70458;49.200;-122.910;2023-06-26T12:43:42;13.02;;;3.60;;
80994;SDS011;70458;49.200;-122.910;2023-06-26T12:46:08;13.50;;;3.72;;
80994;SDS011;70458;49.200;-122.910;2023-06-26T12:48:44;12.35;;;3.25;;
80994;SDS011;70458;49.200;-122.910;2023-06-26T12:51:17;9.63;;;2.85;;
80994;SDS011;70458;49.200;-122.910;2023-06-26T12:53:43;9.65;;;3.15;;
80994;SDS011;70458;49.200;-122.910;2023-06-26T12:56:10;7.72;;;2.63;;
80994;SDS011;70458;49.200;-122.910;2023-06-26T12:58:36;9.80;;;3.42;;
80994;SDS011;70458;49.200;-122.910;2023-06-26T13:01:04;12.60;;;4.43;;
80994;SDS011;70458;49.200;-122.910;2023-06-26T13:03:43;8.75;;;3.03;;
80994;SDS011;70458;49.200;-122.910;2023-06-26T13:06:09;8.10;;;2.92;;
80994;SDS011;70458;49.200;-122.910;2023-06-26T13:08:35;6.78;;;2.45;;
80994;SDS011;70458;49.200;-122.910;2023-06-26T13:11:02;6.85;;;2.78;;
80994;SDS011;70458;49.200;-122.910;2023-06-26T13:13:28;10.65;;;2.55;;
80994;SDS011;70458;49.200;-122.910;2023-06-26T13:15:55;10.68;;;2.33;;
80994;SDS011;70458;49.200;-122.910;2023-06-26T13:18:21;9.85;;;2.60;;
80994;SDS011;70458;49.200;-122.910;2023-06-26T13:20:47;7.97;;;2.45;;
80994;SDS011;70458;49.200;-122.910;2023-06-26T13:23:13;7.30;;;2.50;;
80994;SDS011;70458;49.200;-122.910;2023-06-26T13:25:40;8.80;;;2.63;;
80994;SDS011;70458;49.200;-122.910;2023-06-26T13:28:06;12.80;;;3.58;;
80994;SDS011;70458;49.200;-122.910;2023-06-26T13:30:33;8.48;;;2.33;;
80994;SDS011;70458;49.200;-122.910;2023-06-26T13:32:59;7.00;;;2.38;;
80994;SDS011;70458;49.200;-122.910;2023-06-26T13:35:25;8.15;;;2.63;;
80994;SDS011;70458;49.200;-122.910;2023-06-26T13:37:51;6.28;;;1.92;;
80994;SDS011;70458;49.200;-122.910;2023-06-26T13:40:17;7.97;;;2.25;;
80994;SDS011;70458;49.200;-122.910;2023-06-26T13:42:44;8.38;;;2.50;;
80994;SDS011;70458;49.200;-122.910;2023-06-26T13:45:10;8.48;;;2.45;;
80994;SDS011;70458;49.200;-122.910;2023-06-26T13:47:37;7.78;;;2.65;;
80994;SDS011;70458;49.200;-122.910;2023-06-26T13:50:07;7.97;;;2.28;;
80994;SDS011;70458;49.200;-122.910;2023-06-26T13:52:35;10.20;;;2.47;;
80994;SDS011;70458;49.200;-122.910;2023-06-26T13:55:01;10.88;;;2.83;;
80994;SDS011;70458;49.200;-122.910;2023-06-26T13:57:30;9.35;;;2.38;;
80994;SDS011;70458;49.200;-122.910;2023-06-26T13:59:56;8.55;;;2.92;;
80994;SDS011;70458;49.200;-122.910;2023-06-26T14:02:23;8.30;;;2.58;;
80994;SDS011;70458;49.200;-122.910;2023-06-26T14:04:49;7.88;;;2.15;;
80994;SDS011;70458;49.200;-122.910;2023-06-26T14:07:15;7.32;;;2.40;;
80994;SDS011;70458;49.200;-122.910;2023-06-26T14:09:41;11.05;;;2.90;;
80994;SDS011;70458;49.200;-122.910;2023-06-26T14:12:08;6.47;;;2.10;;
80994;SDS011;70458;49.200;-122.910;2023-06-26T14:14:34;7.75;;;2.75;;
80994;SDS011;70458;49.200;-122.910;2023-06-26T14:17:00;8.38;;;2.97;;
80994;SDS011;70458;49.200;-122.910;2023-06-26T14:19:26;8.50;;;2.15;;
80994;SDS011;70458;49.200;-122.910;2023-06-26T14:21:53;8.73;;;2.92;;
80994;SDS011;70458;49.200;-122.910;2023-06-26T14:24:19;10.13;;;2.80;;
80994;SDS011;70458;49.200;-122.910;2023-06-26T14:26:45;7.72;;;2.65;;
80994;SDS011;70458;49.200;-122.910;2023-06-26T14:29:11;9.65;;;3.60;;
80994;SDS011;70458;49.200;-122.910;2023-06-26T14:31:40;8.00;;;3.00;;
80994;SDS011;70458;49.200;-122.910;2023-06-26T14:34:06;11.45;;;3.25;;
80994;SDS011;70458;49.200;-122.910;2023-06-26T14:36:33;11.95;;;3.08;;